Time;durP1;ratioP1;P1;durP2;ratioP2;P2;SDS_P1;SDS_P2;PMS_P1;PMS_P2;Temp;Humidity;BMP_temperature;BMP_pressure;BME280_temperature;BME280_humidity;BME280_pressure;Samples;Min_cycle;Max_cycle;Signal;HPM_P1;HPM_P2
2022/07/19 00:00:26;;;;;;;288.45;274.25;;;;;;;;;;5038629;28;20064;-72
2022/07/19 00:02:52;;;;;;;190.57;181.25;;;;;;;;;;5037070;28;20021;-66
2022/07/19 00:05:19;;;;;;;192.63;183.18;;;;;;;;;;5038108;28;20599;-71
2022/07/19 00:07:45;;;;;;;146.75;139.43;;;;;;;;;;5036034;28;20323;-71
2022/07/19 00:10:11;;;;;;;151.25;143.77;;;;;;;;;;5038791;28;20635;-71
2022/07/19 00:12:38;;;;;;;152.68;145.13;;;;;;;;;;5035512;28;20030;-71
2022/07/19 00:15:07;;;;;;;154.25;146.57;;;;;;;;;;5036258;28;20041;-71
2022/07/19 00:17:33;;;;;;;215.90;205.18;;;;;;;;;;5037014;28;20034;-71
2022/07/19 00:19:58;;;;;;;174.73;166.15;;;;;;;;;;5034175;28;20025;-71
2022/07/19 00:22:23;;;;;;;216.00;205.50;;;;;;;;;;5035504;28;20110;-71
2022/07/19 00:24:49;;;;;;;282.45;268.67;;;;;;;;;;5033206;28;20037;-71
2022/07/19 00:27:14;;;;;;;164.13;156.05;;;;;;;;;;5035616;28;20029;-71
2022/07/19 00:29:39;;;;;;;215.75;205.30;;;;;;;;;;5035828;28;20404;-71
2022/07/19 00:32:05;;;;;;;164.38;156.27;;;;;;;;;;5036485;28;20888;-66
2022/07/19 00:34:30;;;;;;;144.77;137.50;;;;;;;;;;5037259;28;20238;-66
2022/07/19 00:36:56;;;;;;;191.27;181.57;;;;;;;;;;5038669;28;20061;-64
2022/07/19 00:39:21;;;;;;;143.25;136.02;;;;;;;;;;5036738;28;20077;-63
2022/07/19 00:41:46;;;;;;;257.80;244.77;;;;;;;;;;5034725;28;20037;-64
2022/07/19 00:44:12;;;;;;;168.88;160.32;;;;;;;;;;5036083;28;20029;-64
2022/07/19 00:46:37;;;;;;;183.48;174.30;;;;;;;;;;5036731;28;20037;-64
2022/07/19 00:49:04;;;;;;;223.50;212.30;;;;;;;;;;5036818;28;20029;-63
2022/07/19 00:51:33;;;;;;;180.60;171.68;;;;;;;;;;5033823;28;20101;-65
2022/07/19 00:54:01;;;;;;;280.05;266.15;;;;;;;;;;5033538;28;20094;-65
2022/07/19 00:56:27;;;;;;;315.88;300.10;;;;;;;;;;5035294;28;20580;-65
2022/07/19 00:58:54;;;;;;;205.57;195.43;;;;;;;;;;5035074;28;20047;-65
2022/07/19 01:01:19;;;;;;;293.73;279.25;;;;;;;;;;5034792;28;20073;-65
2022/07/19 01:03:46;;;;;;;240.57;228.82;;;;;;;;;;5037764;28;20120;-65
2022/07/19 01:06:11;;;;;;;198.32;188.55;;;;;;;;;;5035234;28;20025;-65
2022/07/19 01:08:37;;;;;;;213.73;203.18;;;;;;;;;;5038444;28;20035;-64
2022/07/19 01:11:06;;;;;;;251.77;239.48;;;;;;;;;;5034394;28;20065;-65
2022/07/19 01:13:32;;;;;;;253.25;240.93;;;;;;;;;;5035834;28;20333;-66
2022/07/19 01:15:57;;;;;;;280.85;267.10;;;;;;;;;;5037157;28;20033;-66
2022/07/19 01:18:23;;;;;;;249.90;237.60;;;;;;;;;;5037704;28;20036;-67
2022/07/19 01:20:49;;;;;;;263.45;250.40;;;;;;;;;;5036977;28;20470;-65
2022/07/19 01:23:15;;;;;;;146.80;139.52;;;;;;;;;;5038560;28;20055;-65
2022/07/19 01:25:40;;;;;;;193.38;183.80;;;;;;;;;;5031493;28;20029;-67
2022/07/19 01:28:07;;;;;;;216.82;206.07;;;;;;;;;;5036008;28;20030;-68
2022/07/19 01:30:33;;;;;;;209.10;198.70;;;;;;;;;;5037682;28;20033;-68
2022/07/19 01:32:58;;;;;;;170.57;161.73;;;;;;;;;;5034839;28;20395;-68
2022/07/19 01:35:24;;;;;;;164.27;155.80;;;;;;;;;;5034013;28;20032;-65
2022/07/19 01:37:50;;;;;;;134.65;127.70;;;;;;;;;;5033429;28;20029;-65
2022/07/19 01:40:16;;;;;;;124.97;118.53;;;;;;;;;;5034622;28;20107;-65
2022/07/19 01:42:43;;;;;;;134.85;127.80;;;;;;;;;;5037003;28;20033;-68
2022/07/19 01:45:09;;;;;;;105.18;99.75;;;;;;;;;;5031896;28;20041;-65
2022/07/19 01:47:36;;;;;;;121.78;115.45;;;;;;;;;;5031858;28;20061;-68
2022/07/19 01:50:03;;;;;;;110.85;105.03;;;;;;;;;;5036669;28;20031;-68
2022/07/19 01:52:29;;;;;;;115.78;109.80;;;;;;;;;;5033834;28;20060;-68
2022/07/19 01:54:54;;;;;;;113.47;107.63;;;;;;;;;;5037305;28;20471;-68
2022/07/19 01:57:19;;;;;;;121.53;115.15;;;;;;;;;;5035309;28;20078;-65
2022/07/19 01:59:45;;;;;;;122.40;116.05;;;;;;;;;;5033661;28;20402;-65
2022/07/19 02:02:11;;;;;;;123.93;117.55;;;;;;;;;;5033656;28;20404;-64
2022/07/19 02:04:37;;;;;;;107.63;102.10;;;;;;;;;;5034050;28;20040;-64
2022/07/19 02:07:03;;;;;;;109.57;104.00;;;;;;;;;;5033551;28;20033;-64
2022/07/19 02:09:28;;;;;;;115.20;109.40;;;;;;;;;;5034319;28;20029;-64
2022/07/19 02:11:54;;;;;;;104.72;99.47;;;;;;;;;;5034989;28;20051;-64
2022/07/19 02:14:19;;;;;;;113.57;107.80;;;;;;;;;;5034554;28;20037;-64
2022/07/19 02:16:44;;;;;;;107.13;101.75;;;;;;;;;;5035365;28;20417;-68
2022/07/19 02:19:10;;;;;;;96.47;91.63;;;;;;;;;;5035576;28;20637;-68
2022/07/19 02:21:37;;;;;;;107.40;102.00;;;;;;;;;;5033707;28;20044;-69
2022/07/19 02:24:04;;;;;;;101.93;96.80;;;;;;;;;;5033581;28;20116;-65
2022/07/19 02:26:30;;;;;;;106.60;101.28;;;;;;;;;;5036317;28;20032;-68
2022/07/19 02:28:55;;;;;;;110.50;104.95;;;;;;;;;;5034538;28;20099;-68
2022/07/19 02:31:22;;;;;;;117.30;111.45;;;;;;;;;;5032401;28;20139;-68
2022/07/19 02:33:47;;;;;;;120.57;114.47;;;;;;;;;;5034477;28;20053;-68
2022/07/19 02:36:13;;;;;;;108.57;103.15;;;;;;;;;;5036236;28;20037;-64
2022/07/19 02:38:39;;;;;;;98.85;93.90;;;;;;;;;;5035430;28;20057;-65
2022/07/19 02:41:05;;;;;;;97.75;92.90;;;;;;;;;;5034356;28;20153;-64
2022/07/19 02:43:30;;;;;;;100.07;95.05;;;;;;;;;;5034286;28;20036;-64
2022/07/19 02:45:55;;;;;;;94.95;90.10;;;;;;;;;;5036273;28;20041;-65
2022/07/19 02:48:21;;;;;;;86.28;81.95;;;;;;;;;;5032218;28;20026;-65
2022/07/19 02:50:46;;;;;;;84.65;80.40;;;;;;;;;;5033512;28;20416;-65
2022/07/19 02:53:12;;;;;;;104.68;99.35;;;;;;;;;;5035490;28;20090;-65
2022/07/19 02:55:37;;;;;;;73.05;69.38;;;;;;;;;;5036196;28;20037;-65
2022/07/19 02:58:03;;;;;;;76.53;72.68;;;;;;;;;;5032937;28;20053;-69
2022/07/19 03:00:29;;;;;;;92.47;87.85;;;;;;;;;;5032714;28;20117;-68
2022/07/19 03:02:54;;;;;;;108.93;103.53;;;;;;;;;;5034778;28;20037;-68
2022/07/19 03:05:20;;;;;;;104.32;99.13;;;;;;;;;;5036876;28;20037;-68
2022/07/19 03:07:45;;;;;;;108.20;102.80;;;;;;;;;;5034646;28;20059;-68
2022/07/19 03:10:10;;;;;;;104.80;99.57;;;;;;;;;;5033840;28;20033;-69
2022/07/19 03:12:36;;;;;;;118.78;112.90;;;;;;;;;;5034400;28;20025;-68
2022/07/19 03:15:03;;;;;;;121.78;115.60;;;;;;;;;;5036300;28;20022;-69
2022/07/19 03:17:28;;;;;;;111.68;106.05;;;;;;;;;;5035725;28;20056;-68
2022/07/19 03:19:53;;;;;;;103.25;97.80;;;;;;;;;;5035973;28;20069;-68
2022/07/19 03:22:19;;;;;;;114.43;108.70;;;;;;;;;;5035623;28;20075;-68
2022/07/19 03:24:44;;;;;;;117.25;111.38;;;;;;;;;;5039008;28;20044;-69
2022/07/19 03:27:09;;;;;;;131.43;124.78;;;;;;;;;;5037527;28;20032;-68
2022/07/19 03:29:35;;;;;;;142.85;135.75;;;;;;;;;;5037903;28;20725;-69
2022/07/19 03:32:00;;;;;;;146.52;139.20;;;;;;;;;;5037215;28;20437;-69
2022/07/19 03:34:26;;;;;;;137.75;130.90;;;;;;;;;;5039428;28;20040;-68
2022/07/19 03:36:51;;;;;;;133.20;126.55;;;;;;;;;;5034532;28;20029;-68
2022/07/19 03:39:17;;;;;;;135.27;128.43;;;;;;;;;;5036867;28;20482;-68
2022/07/19 03:41:42;;;;;;;142.60;135.45;;;;;;;;;;5037246;28;20033;-66
2022/07/19 03:44:07;;;;;;;115.65;109.88;;;;;;;;;;5037306;28;20104;-66
2022/07/19 03:46:33;;;;;;;92.88;88.18;;;;;;;;;;5037127;28;20064;-67
2022/07/19 03:48:58;;;;;;;117.57;111.70;;;;;;;;;;5037534;28;20187;-68
2022/07/19 03:51:24;;;;;;;119.72;113.72;;;;;;;;;;5038945;28;20037;-67
2022/07/19 03:53:49;;;;;;;120.75;114.63;;;;;;;;;;5038794;28;20511;-68
2022/07/19 03:56:17;;;;;;;88.95;84.47;;;;;;;;;;5037434;28;20094;-67
2022/07/19 03:58:43;;;;;;;64.55;61.25;;;;;;;;;;5038804;28;20056;-67
2022/07/19 04:01:08;;;;;;;57.85;54.95;;;;;;;;;;5037833;28;20048;-67
2022/07/19 04:03:37;;;;;;;64.30;60.97;;;;;;;;;;5036764;28;20051;-66
2022/07/19 04:06:04;;;;;;;114.43;108.68;;;;;;;;;;5035079;28;20026;-67
2022/07/19 04:08:30;;;;;;;114.55;108.82;;;;;;;;;;5034899;28;20025;-67
2022/07/19 04:10:55;;;;;;;95.15;90.35;;;;;;;;;;5035239;28;20041;-67
2022/07/19 04:13:20;;;;;;;133.23;126.53;;;;;;;;;;5034894;28;20028;-68
2022/07/19 04:15:46;;;;;;;78.43;74.50;;;;;;;;;;5038467;28;20502;-67
2022/07/19 04:18:11;;;;;;;101.50;96.43;;;;;;;;;;5036111;28;20021;-69
2022/07/19 04:20:37;;;;;;;74.85;71.05;;;;;;;;;;5037062;28;20048;-68
2022/07/19 04:23:03;;;;;;;102.97;97.82;;;;;;;;;;5034366;28;20143;-68
2022/07/19 04:25:29;;;;;;;94.43;89.70;;;;;;;;;;5038525;28;20558;-68
2022/07/19 04:27:54;;;;;;;122.82;116.63;;;;;;;;;;5037465;28;20033;-68
2022/07/19 04:30:19;;;;;;;88.38;83.93;;;;;;;;;;5035665;28;20029;-69
2022/07/19 04:32:45;;;;;;;78.82;74.85;;;;;;;;;;5033375;28;20045;-69
2022/07/19 04:35:10;;;;;;;105.22;99.97;;;;;;;;;;5036969;28;20465;-69
2022/07/19 04:37:35;;;;;;;83.78;79.57;;;;;;;;;;5035328;28;20036;-69
2022/07/19 04:40:01;;;;;;;93.40;88.68;;;;;;;;;;5037013;28;20634;-68
2022/07/19 04:42:26;;;;;;;104.22;98.90;;;;;;;;;;5034880;28;20163;-65
2022/07/19 04:44:51;;;;;;;88.80;84.35;;;;;;;;;;5035757;28;20033;-66
2022/07/19 04:47:17;;;;;;;104.60;99.28;;;;;;;;;;5036850;28;20029;-64
2022/07/19 04:49:42;;;;;;;82.97;78.78;;;;;;;;;;5037717;28;20064;-67
2022/07/19 04:52:07;;;;;;;77.95;73.97;;;;;;;;;;5038005;28;20033;-67
2022/07/19 04:54:33;;;;;;;79.97;75.93;;;;;;;;;;5037227;28;20037;-66
2022/07/19 04:56:58;;;;;;;95.00;90.22;;;;;;;;;;5038499;28;20029;-65
2022/07/19 04:59:23;;;;;;;106.05;100.68;;;;;;;;;;5034581;28;20156;-66
2022/07/19 05:01:49;;;;;;;145.80;138.40;;;;;;;;;;5037387;28;20059;-66
2022/07/19 05:04:14;;;;;;;99.28;94.28;;;;;;;;;;5036780;28;20060;-64
2022/07/19 05:06:40;;;;;;;188.65;179.02;;;;;;;;;;5036334;28;20037;-64
2022/07/19 05:09:05;;;;;;;184.50;175.38;;;;;;;;;;5037451;28;20030;-65
2022/07/19 05:11:30;;;;;;;176.13;167.40;;;;;;;;;;5035636;28;20036;-64
2022/07/19 05:13:56;;;;;;;217.70;206.98;;;;;;;;;;5038971;28;20103;-64
2022/07/19 05:16:21;;;;;;;104.95;99.70;;;;;;;;;;5035565;28;20619;-64
2022/07/19 05:18:47;;;;;;;77.88;74.00;;;;;;;;;;5038271;28;20597;-65
2022/07/19 05:21:12;;;;;;;135.50;128.75;;;;;;;;;;5035826;28;20668;-64
2022/07/19 05:23:40;;;;;;;147.88;140.60;;;;;;;;;;5036203;28;20057;-65
2022/07/19 05:26:06;;;;;;;110.82;105.30;;;;;;;;;;5036627;28;20498;-65
2022/07/19 05:28:31;;;;;;;141.25;134.23;;;;;;;;;;5037195;28;20094;-65
2022/07/19 05:30:57;;;;;;;127.97;121.13;;;;;;;;;;5035748;28;20022;-64
2022/07/19 05:33:22;;;;;;;90.38;85.90;;;;;;;;;;5033553;28;20654;-64
2022/07/19 05:35:47;;;;;;;89.72;85.18;;;;;;;;;;5036681;28;20055;-64
2022/07/19 05:38:13;;;;;;;273.90;259.48;;;;;;;;;;5033158;28;20029;-63
2022/07/19 05:40:38;;;;;;;392.35;371.10;;;;;;;;;;5028031;28;20092;-63
2022/07/19 05:43:03;;;;;;;214.27;202.75;;;;;;;;;;5035818;28;20065;-63
2022/07/19 05:45:29;;;;;;;607.30;568.83;;;;;;;;;;5032371;28;20752;-63
2022/07/19 05:47:54;;;;;;;126.85;120.05;;;;;;;;;;5032488;28;20610;-63
2022/07/19 05:50:19;;;;;;;597.70;561.03;;;;;;;;;;5032523;28;20399;-63
2022/07/19 05:52:45;;;;;;;432.30;406.42;;;;;;;;;;5031967;28;20383;-62
2022/07/19 05:55:10;;;;;;;364.35;344.00;;;;;;;;;;5031668;28;20030;-63
2022/07/19 05:57:36;;;;;;;438.50;412.95;;;;;;;;;;5033494;28;20068;-63
2022/07/19 06:00:03;;;;;;;390.55;366.38;;;;;;;;;;5031358;28;20028;-63
2022/07/19 06:02:28;;;;;;;448.77;422.50;;;;;;;;;;5030472;28;20466;-63
2022/07/19 06:04:54;;;;;;;180.98;171.75;;;;;;;;;;5034549;28;20064;-63
2022/07/19 06:07:19;;;;;;;231.75;219.60;;;;;;;;;;5033995;28;20029;-63
2022/07/19 06:09:44;;;;;;;371.88;349.58;;;;;;;;;;5031808;28;20040;-64
2022/07/19 06:12:10;;;;;;;360.48;341.85;;;;;;;;;;5031672;28;20021;-64
2022/07/19 06:14:35;;;;;;;70.15;66.50;;;;;;;;;;5032794;28;20434;-63
2022/07/19 06:17:00;;;;;;;310.25;294.00;;;;;;;;;;5033951;28;20029;-63
2022/07/19 06:19:26;;;;;;;70.82;67.22;;;;;;;;;;5030000;28;20045;-64
2022/07/19 06:21:52;;;;;;;94.15;89.38;;;;;;;;;;5032085;28;20044;-63
2022/07/19 06:24:18;;;;;;;92.00;87.30;;;;;;;;;;5032944;28;20033;-63
2022/07/19 06:26:43;;;;;;;133.70;127.05;;;;;;;;;;5030474;28;20055;-63
2022/07/19 06:29:09;;;;;;;120.40;114.25;;;;;;;;;;5032268;28;20105;-63
2022/07/19 06:31:34;;;;;;;87.90;83.47;;;;;;;;;;5032860;28;20099;-64
2022/07/19 06:34:00;;;;;;;194.48;184.90;;;;;;;;;;5031751;28;20411;-64
2022/07/19 06:36:26;;;;;;;196.40;186.70;;;;;;;;;;5034142;28;20474;-63
2022/07/19 06:38:52;;;;;;;169.73;161.27;;;;;;;;;;5017832;28;20033;-63
2022/07/19 06:41:18;;;;;;;160.88;152.70;;;;;;;;;;5030839;28;20033;-63
2022/07/19 06:43:44;;;;;;;95.68;90.88;;;;;;;;;;5030298;28;20144;-62
2022/07/19 06:46:09;;;;;;;131.18;124.60;;;;;;;;;;5032968;28;20063;-63
2022/07/19 06:48:35;;;;;;;144.98;137.77;;;;;;;;;;5032047;28;20024;-64
2022/07/19 06:51:00;;;;;;;128.25;121.80;;;;;;;;;;5031919;28;20536;-64
2022/07/19 06:53:26;;;;;;;179.13;170.30;;;;;;;;;;5030654;28;20037;-64
2022/07/19 06:55:52;;;;;;;111.55;105.95;;;;;;;;;;5031217;28;20024;-65
2022/07/19 06:58:17;;;;;;;123.13;116.95;;;;;;;;;;5016803;28;20060;-64
2022/07/19 07:00:43;;;;;;;137.00;130.15;;;;;;;;;;5029299;28;20637;-62
2022/07/19 07:03:08;;;;;;;148.07;140.70;;;;;;;;;;5031793;28;20675;-65
2022/07/19 07:05:34;;;;;;;127.38;120.93;;;;;;;;;;5032442;28;20123;-63
2022/07/19 07:08:00;;;;;;;138.55;131.60;;;;;;;;;;5032307;28;20065;-62
2022/07/19 07:10:25;;;;;;;140.70;133.57;;;;;;;;;;5030423;28;20112;-62
2022/07/19 07:12:51;;;;;;;120.03;114.10;;;;;;;;;;5030620;28;20529;-61
2022/07/19 07:15:16;;;;;;;160.98;152.98;;;;;;;;;;5032463;28;20044;-63
2022/07/19 07:17:42;;;;;;;109.20;103.78;;;;;;;;;;5031292;28;20056;-62
2022/07/19 07:20:08;;;;;;;133.55;126.90;;;;;;;;;;5030083;28;20060;-62
2022/07/19 07:22:34;;;;;;;111.25;105.75;;;;;;;;;;5032023;28;20056;-63
2022/07/19 07:25:00;;;;;;;103.25;98.03;;;;;;;;;;5032410;28;20126;-62
2022/07/19 07:27:25;;;;;;;136.07;128.85;;;;;;;;;;5031245;28;20621;-63
2022/07/19 07:29:51;;;;;;;108.97;103.45;;;;;;;;;;5028459;28;20029;-62
2022/07/19 07:32:17;;;;;;;150.02;142.27;;;;;;;;;;5031787;28;20522;-63
2022/07/19 07:34:42;;;;;;;159.43;151.50;;;;;;;;;;5029836;28;20060;-63
2022/07/19 07:37:07;;;;;;;271.92;258.35;;;;;;;;;;5032252;28;20036;-63
2022/07/19 07:39:33;;;;;;;151.88;143.95;;;;;;;;;;5032714;28;20029;-63
2022/07/19 07:41:58;;;;;;;190.02;180.07;;;;;;;;;;5032614;28;20076;-63
2022/07/19 07:44:24;;;;;;;220.57;208.95;;;;;;;;;;5029411;28;20041;-63
2022/07/19 07:46:49;;;;;;;185.93;175.88;;;;;;;;;;5031573;28;20087;-63
2022/07/19 07:49:14;;;;;;;207.98;196.80;;;;;;;;;;5031481;28;20033;-63
2022/07/19 07:51:40;;;;;;;320.95;304.67;;;;;;;;;;5030758;28;20614;-67
2022/07/19 07:54:05;;;;;;;307.80;291.85;;;;;;;;;;5029181;28;20044;-67
2022/07/19 07:56:30;;;;;;;165.77;156.88;;;;;;;;;;5030508;28;20041;-68
2022/07/19 07:58:56;;;;;;;350.75;332.85;;;;;;;;;;5031051;28;20026;-67
2022/07/19 08:01:21;;;;;;;168.13;159.10;;;;;;;;;;5030661;28;20056;-68
2022/07/19 08:03:46;;;;;;;256.27;243.30;;;;;;;;;;5030389;28;20108;-67
2022/07/19 08:06:12;;;;;;;300.23;284.90;;;;;;;;;;5029467;28;20028;-68
2022/07/19 08:08:38;;;;;;;303.90;288.45;;;;;;;;;;5034031;28;20466;-68
2022/07/19 08:11:03;;;;;;;151.48;143.88;;;;;;;;;;5029771;28;20029;-67
2022/07/19 08:13:29;;;;;;;420.38;398.15;;;;;;;;;;5033114;28;20107;-67
2022/07/19 08:15:55;;;;;;;413.58;391.63;;;;;;;;;;5036458;28;20159;-67
2022/07/19 08:18:20;;;;;;;418.52;396.25;;;;;;;;;;5037298;28;20037;-69
2022/07/19 08:20:46;;;;;;;335.05;317.13;;;;;;;;;;5035166;28;20106;-69
2022/07/19 08:23:12;;;;;;;321.58;304.85;;;;;;;;;;5033822;28;20029;-68
2022/07/19 08:25:37;;;;;;;416.70;394.35;;;;;;;;;;5033933;28;20084;-69
2022/07/19 08:28:03;;;;;;;324.15;307.17;;;;;;;;;;5035562;28;20124;-62
2022/07/19 08:30:29;;;;;;;284.90;270.45;;;;;;;;;;5033345;28;20048;-64
2022/07/19 08:32:54;;;;;;;183.40;174.30;;;;;;;;;;5036138;28;20040;-68
2022/07/19 08:35:20;;;;;;;429.65;406.50;;;;;;;;;;5035657;28;20740;-69
2022/07/19 08:37:45;;;;;;;420.00;396.92;;;;;;;;;;5034856;28;20029;-69
2022/07/19 08:40:11;;;;;;;442.67;418.70;;;;;;;;;;5034757;28;20499;-68
2022/07/19 08:42:36;;;;;;;185.90;176.73;;;;;;;;;;5034061;28;20108;-64
2022/07/19 08:45:05;;;;;;;160.43;152.45;;;;;;;;;;5036241;28;20029;-69
2022/07/19 08:47:31;;;;;;;166.98;158.70;;;;;;;;;;5033855;28;20037;-65
2022/07/19 08:49:59;;;;;;;318.30;302.13;;;;;;;;;;5034152;28;20025;-64
2022/07/19 08:52:25;;;;;;;288.73;274.25;;;;;;;;;;5031210;28;20833;-64
2022/07/19 08:54:50;;;;;;;127.10;120.78;;;;;;;;;;5035174;28;20043;-64
2022/07/19 09:00:00;;;;;;;133.60;127.00;;;;;;;;;;5033847;28;20033;-63
2022/07/19 09:02:25;;;;;;;298.05;283.10;;;;;;;;;;5035361;28;20517;-70
2022/07/19 09:05:03;;;;;;;289.70;274.85;;;;;;;;;;5032968;28;20041;-70
2022/07/19 09:07:29;;;;;;;207.07;196.80;;;;;;;;;;5035017;28;20059;-70
2022/07/19 09:10:15;;;;;;;156.52;148.75;;;;;;;;;;5035181;28;20059;-64
2022/07/19 09:13:01;;;;;;;140.25;133.25;;;;;;;;;;5033998;28;20041;-64
2022/07/19 09:15:50;;;;;;;99.72;94.78;;;;;;;;;;5031379;28;20052;-70
2022/07/19 09:18:17;;;;;;;79.67;75.70;;;;;;;;;;5034178;28;20080;-70
2022/07/19 09:27:29;;;;;;;121.80;115.75;;;;;;;;;;4947826;28;20522;-70
2022/07/19 09:29:56;;;;;;;194.77;185.18;;;;;;;;;;4965343;28;20098;-70
2022/07/19 09:32:24;;;;;;;107.85;102.43;;;;;;;;;;5034762;28;20033;-70
2022/07/19 09:34:58;;;;;;;103.80;98.65;;;;;;;;;;5033445;28;20033;-69
2022/07/19 09:37:28;;;;;;;60.45;57.42;;;;;;;;;;5033252;28;20033;-70
2022/07/19 09:39:56;;;;;;;73.95;70.20;;;;;;;;;;5034482;28;20030;-66
2022/07/19 09:42:52;;;;;;;100.72;95.75;;;;;;;;;;5034164;28;20719;-67
2022/07/19 09:45:18;;;;;;;97.38;92.57;;;;;;;;;;5029961;28;20042;-66
2022/07/19 09:47:45;;;;;;;49.33;46.83;;;;;;;;;;5030986;28;20459;-72
2022/07/19 09:50:16;;;;;;;63.95;60.70;;;;;;;;;;5032682;28;20364;-66
2022/07/19 09:52:43;;;;;;;44.63;42.33;;;;;;;;;;5033404;28;20585;-72
2022/07/19 09:55:09;;;;;;;97.05;92.22;;;;;;;;;;5035707;28;20505;-73
2022/07/19 09:57:46;;;;;;;64.82;61.58;;;;;;;;;;5033132;28;20045;-72
2022/07/19 10:00:13;;;;;;;73.03;69.22;;;;;;;;;;5030861;28;20120;-73
2022/07/19 10:02:41;;;;;;;111.63;106.13;;;;;;;;;;5035308;28;20064;-72
2022/07/19 10:05:09;;;;;;;137.52;130.77;;;;;;;;;;5033228;28;20029;-73
2022/07/19 10:07:35;;;;;;;95.63;90.90;;;;;;;;;;5030587;28;20048;-67
2022/07/19 10:10:12;;;;;;;97.10;92.35;;;;;;;;;;5031318;28;20028;-67
2022/07/19 10:12:39;;;;;;;217.00;206.25;;;;;;;;;;5031374;28;20025;-68
2022/07/19 10:15:06;;;;;;;169.68;161.10;;;;;;;;;;5031454;28;20040;-69
2022/07/19 10:17:36;;;;;;;181.40;172.32;;;;;;;;;;5031342;28;20124;-72
2022/07/19 10:20:05;;;;;;;168.23;160.00;;;;;;;;;;5031480;28;20032;-72
2022/07/19 10:22:31;;;;;;;203.25;192.88;;;;;;;;;;5033958;28;20044;-72
2022/07/19 10:24:58;;;;;;;208.27;197.50;;;;;;;;;;5035130;28;20037;-71
2022/07/19 10:27:23;;;;;;;371.88;352.30;;;;;;;;;;5037455;28;20642;-72
2022/07/19 10:29:48;;;;;;;268.83;254.95;;;;;;;;;;5034504;28;20048;-72
2022/07/19 10:32:15;;;;;;;263.08;249.55;;;;;;;;;;5032872;28;20045;-71
2022/07/19 10:34:41;;;;;;;318.27;301.77;;;;;;;;;;5031014;28;20072;-67
2022/07/19 10:37:07;;;;;;;364.02;345.23;;;;;;;;;;5033925;28;20410;-69
2022/07/19 10:39:38;;;;;;;335.10;317.90;;;;;;;;;;5032699;28;20088;-71
2022/07/19 10:42:09;;;;;;;246.27;234.10;;;;;;;;;;5031109;28;20641;-67
2022/07/19 10:44:35;;;;;;;214.25;203.60;;;;;;;;;;5031753;28;20124;-67
2022/07/19 10:47:01;;;;;;;342.10;324.05;;;;;;;;;;5031074;28;20024;-67
2022/07/19 10:49:48;;;;;;;182.60;173.63;;;;;;;;;;5034703;28;20136;-69
2022/07/19 10:52:29;;;;;;;153.70;146.00;;;;;;;;;;5029408;28;20127;-73
2022/07/19 10:55:20;;;;;;;134.77;128.07;;;;;;;;;;5026834;28;20033;-72
2022/07/19 10:57:48;;;;;;;207.77;197.65;;;;;;;;;;5035086;28;20049;-71
2022/07/19 11:00:22;;;;;;;241.57;229.85;;;;;;;;;;5038053;28;20059;-70
2022/07/19 11:02:49;;;;;;;196.38;186.63;;;;;;;;;;5031594;28;20052;-72
2022/07/19 11:05:24;;;;;;;151.38;143.88;;;;;;;;;;5033366;28;20033;-70
2022/07/19 11:07:53;;;;;;;102.68;97.53;;;;;;;;;;5032408;28;20109;-71
2022/07/19 11:10:30;;;;;;;259.48;246.75;;;;;;;;;;5028801;28;20407;-71
2022/07/19 11:12:58;;;;;;;110.25;104.75;;;;;;;;;;5032744;28;20040;-73
2022/07/19 11:15:27;;;;;;;143.45;136.30;;;;;;;;;;5031989;28;20515;-72
2022/07/19 11:17:58;;;;;;;265.88;252.70;;;;;;;;;;5035335;28;20917;-72
2022/07/19 11:20:25;;;;;;;68.18;64.65;;;;;;;;;;5030939;28;20038;-71
2022/07/19 11:22:51;;;;;;;76.53;72.70;;;;;;;;;;5020072;28;20087;-70
2022/07/19 11:25:25;;;;;;;101.03;96.00;;;;;;;;;;5029550;28;20060;-69
2022/07/19 11:27:50;;;;;;;74.10;70.40;;;;;;;;;;5038165;28;20980;-69
2022/07/19 11:30:16;;;;;;;85.40;81.18;;;;;;;;;;5034600;28;20028;-69
2022/07/19 11:32:42;;;;;;;95.43;90.72;;;;;;;;;;5038876;28;20048;-69
2022/07/19 11:35:10;;;;;;;95.20;90.50;;;;;;;;;;5032428;28;20057;-68
2022/07/19 11:37:38;;;;;;;91.13;86.63;;;;;;;;;;5034422;28;20037;-70
2022/07/19 11:40:05;;;;;;;94.73;90.07;;;;;;;;;;5034972;28;20920;-70
2022/07/19 11:42:36;;;;;;;98.95;94.07;;;;;;;;;;5037601;28;20531;-71
2022/07/19 11:45:12;;;;;;;103.60;98.45;;;;;;;;;;5036915;28;20048;-69
2022/07/19 11:47:48;;;;;;;114.57;108.97;;;;;;;;;;5025353;28;20037;-70
2022/07/19 11:50:24;;;;;;;96.00;91.30;;;;;;;;;;5038670;28;20410;-70
2022/07/19 11:52:53;;;;;;;111.63;106.18;;;;;;;;;;5036795;28;20044;-65
2022/07/19 11:55:21;;;;;;;93.20;88.63;;;;;;;;;;5037317;28;20055;-68
2022/07/19 11:57:48;;;;;;;120.30;114.38;;;;;;;;;;5037209;28;20037;-70
2022/07/19 12:00:14;;;;;;;69.22;65.78;;;;;;;;;;5037115;28;20033;-69
2022/07/19 12:03:16;;;;;;;85.65;81.43;;;;;;;;;;5036972;28;20087;-68
2022/07/19 12:06:01;;;;;;;88.57;84.20;;;;;;;;;;5026842;28;20087;-69
2022/07/19 12:08:34;;;;;;;73.10;69.47;;;;;;;;;;5033157;28;20025;-66
2022/07/19 12:10:59;;;;;;;83.00;78.90;;;;;;;;;;5037767;28;20459;-69
2022/07/19 12:13:33;;;;;;;113.88;108.22;;;;;;;;;;5039818;28;20047;-71
2022/07/19 12:16:06;;;;;;;123.18;117.07;;;;;;;;;;5034870;28;20099;-71
2022/07/19 12:18:56;;;;;;;104.30;99.10;;;;;;;;;;5033623;28;20123;-71
2022/07/19 12:21:26;;;;;;;125.03;118.85;;;;;;;;;;5035680;28;20035;-70
2022/07/19 12:24:10;;;;;;;93.03;88.40;;;;;;;;;;5034996;28;20145;-65
2022/07/19 12:26:36;;;;;;;71.53;67.97;;;;;;;;;;5034136;28;20106;-66
2022/07/19 12:29:20;;;;;;;76.43;72.57;;;;;;;;;;5032679;28;20028;-66
2022/07/19 12:31:46;;;;;;;41.35;39.25;;;;;;;;;;5033772;28;20044;-68
2022/07/19 12:34:13;;;;;;;111.10;105.65;;;;;;;;;;5033222;28;20063;-73
2022/07/19 12:36:38;;;;;;;58.08;55.15;;;;;;;;;;5034623;28;20095;-72
2022/07/19 12:39:04;;;;;;;42.22;40.03;;;;;;;;;;5034601;28;20049;-73
2022/07/19 12:41:29;;;;;;;50.67;48.13;;;;;;;;;;5036895;28;20028;-72
2022/07/19 12:43:55;;;;;;;49.70;47.20;;;;;;;;;;5036340;28;20029;-72
2022/07/19 12:46:20;;;;;;;53.22;50.42;;;;;;;;;;5032357;28;20080;-68
2022/07/19 12:48:46;;;;;;;51.72;49.13;;;;;;;;;;5033355;28;20041;-73
2022/07/19 12:51:11;;;;;;;46.47;44.10;;;;;;;;;;5033510;28;20100;-71
2022/07/19 12:53:36;;;;;;;39.03;37.03;;;;;;;;;;5034156;28;20048;-71
2022/07/19 12:56:02;;;;;;;49.60;47.10;;;;;;;;;;5037249;28;20467;-71
2022/07/19 13:01:12;;;;;;;54.63;51.88;;;;;;;;;;5034950;28;20044;-67
2022/07/19 13:03:39;;;;;;;48.38;45.92;;;;;;;;;;5033235;28;20248;-72
2022/07/19 13:06:05;;;;;;;51.58;48.97;;;;;;;;;;5035596;28;20120;-72
2022/07/19 13:08:30;;;;;;;48.80;46.33;;;;;;;;;;5032984;28;20415;-72
2022/07/19 13:10:58;;;;;;;54.25;51.55;;;;;;;;;;5034679;28;20040;-72
2022/07/19 13:13:24;;;;;;;37.80;35.85;;;;;;;;;;5036224;28;20033;-73
2022/07/19 13:15:50;;;;;;;32.03;30.38;;;;;;;;;;5034710;28;20036;-72
2022/07/19 13:18:15;;;;;;;32.22;30.52;;;;;;;;;;5032118;28;20029;-67
2022/07/19 13:20:41;;;;;;;31.55;29.85;;;;;;;;;;5029797;28;20036;-70
2022/07/19 13:23:06;;;;;;;36.25;34.35;;;;;;;;;;5034784;28;20033;-72
2022/07/19 13:25:31;;;;;;;35.75;33.92;;;;;;;;;;5032546;28;20044;-73
2022/07/19 13:27:57;;;;;;;36.88;34.97;;;;;;;;;;5036531;28;20467;-72
2022/07/19 13:30:22;;;;;;;44.20;41.95;;;;;;;;;;5036565;28;20120;-68
2022/07/19 13:32:48;;;;;;;69.18;65.70;;;;;;;;;;5033961;28;20059;-68
2022/07/19 13:35:13;;;;;;;70.53;66.88;;;;;;;;;;5032606;28;20033;-73
2022/07/19 13:37:39;;;;;;;45.30;43.00;;;;;;;;;;5035209;28;20076;-70
2022/07/19 13:40:05;;;;;;;66.80;63.45;;;;;;;;;;5036080;28;20028;-68
2022/07/19 13:42:30;;;;;;;76.68;72.85;;;;;;;;;;5031847;28;20022;-73
2022/07/19 13:44:56;;;;;;;52.35;49.70;;;;;;;;;;5033916;28;20045;-70
2022/07/19 13:47:21;;;;;;;93.45;88.82;;;;;;;;;;5030701;28;20040;-62
2022/07/19 13:49:47;;;;;;;92.60;88.00;;;;;;;;;;5036270;28;20067;-69
2022/07/19 13:52:12;;;;;;;126.25;119.95;;;;;;;;;;5034069;28;20127;-70
2022/07/19 13:54:38;;;;;;;93.57;88.93;;;;;;;;;;5030680;28;20071;-71
2022/07/19 13:57:03;;;;;;;73.00;69.35;;;;;;;;;;5033451;28;20237;-71
2022/07/19 13:59:30;;;;;;;109.75;104.20;;;;;;;;;;5035477;28;20017;-72
2022/07/19 14:01:55;;;;;;;123.72;117.55;;;;;;;;;;5030038;28;20029;-72
2022/07/19 14:04:21;;;;;;;112.40;106.82;;;;;;;;;;5030377;28;20052;-69
2022/07/19 14:06:46;;;;;;;148.38;141.02;;;;;;;;;;5034086;28;20630;-69
2022/07/19 14:09:12;;;;;;;121.35;115.30;;;;;;;;;;5035109;28;20108;-69
2022/07/19 14:11:37;;;;;;;151.32;143.55;;;;;;;;;;5031525;28;20537;-68